Main page
METAR-TAF:

METAR-TAF

Airports :

Trieste, Italy

latitude: 45-39N, longitude: 013-45E, elevation: 8 m

Current weather observation

The report was made 45 minutes ago, at 21:55 UTC
Wind 1 kt from the East/Northeast
Temperature 20°C
Humidity 64%
Pressure 1016 hPa
Visibility 10 km or more
no clouds below 1500 m and no cumulonimbus

METAR: LIVT 232155Z 06001KT CAVOK 20/13 Q1016 RMK FEW FEW080 QUK / QUL / VIS MAR 20 KM VIS MIN 9999

Time: 00:40 (22:40 UTC)


TAF: missing

Weather observations and forecasts of more than 4000 airports (METAR and TAF reports).

The available stations are represented by yellow and red dots on the map.

Hover mouse over dot to see the name of the station.

Then click to see weather observations and forecasts.

To change the map : click on the green buttons with a black cross to zoom in, on the green button with a dash to zoom out, or on the green arrows for adjacent maps.


METAR-TAF: